createdAt,value
2018-07-04T00:00:01.547Z,34.38
2018-07-04T00:01:01.694Z,34.38
2018-07-04T00:02:01.527Z,33.98
2018-07-04T00:03:01.520Z,34.48
2018-07-04T00:04:01.504Z,34.48
2018-07-04T00:05:01.537Z,34.08
2018-07-04T00:06:01.483Z,34.08
2018-07-04T00:07:01.509Z,34.18
2018-07-04T00:08:01.465Z,33.98
2018-07-04T00:09:01.461Z,33.98
2018-07-04T00:10:01.445Z,33.59
2018-07-04T00:11:01.433Z,33.98
2018-07-04T00:12:01.472Z,34.38
2018-07-04T00:13:01.452Z,34.38
2018-07-04T00:14:01.407Z,33.98
2018-07-04T00:15:01.395Z,33.98
2018-07-04T00:16:01.381Z,34.18
2018-07-04T00:17:01.374Z,33.98
2018-07-04T00:18:01.367Z,33.98
2018-07-04T00:19:01.428Z,33.98
2018-07-04T00:20:01.345Z,34.58
2018-07-04T00:21:01.334Z,34.67
2018-07-04T00:22:01.324Z,34.67
2018-07-04T00:23:01.310Z,34.48
2018-07-04T00:24:01.303Z,34.58
2018-07-04T00:25:01.331Z,34.58
2018-07-04T00:26:01.321Z,34.58
2018-07-04T00:27:01.269Z,34.58
2018-07-04T00:28:01.257Z,34.38
2018-07-04T00:29:01.335Z,34.38
2018-07-04T00:30:01.241Z,34.58
2018-07-04T00:31:01.259Z,34.58
2018-07-04T00:32:01.220Z,34.38
2018-07-04T00:33:06.046Z,34.38
2018-07-04T00:34:01.194Z,34.18
2018-07-04T00:35:01.188Z,34.38
2018-07-04T00:36:01.180Z,34.38
2018-07-04T00:37:01.202Z,34.38
2018-07-04T00:38:01.155Z,34.39
2018-07-04T00:39:01.144Z,34.48
2018-07-04T00:40:01.172Z,34.38
2018-07-04T00:41:01.124Z,34.38
2018-07-04T00:42:01.117Z,34.38
2018-07-04T00:43:01.142Z,34.38
2018-07-04T00:44:01.092Z,34.38
2018-07-04T00:45:01.081Z,34.38
2018-07-04T00:46:01.068Z,34.48
2018-07-04T00:47:01.108Z,34.48
2018-07-04T00:48:01.050Z,34.50
2018-07-04T00:49:01.077Z,34.48
2018-07-04T00:50:01.033Z,34.48
2018-07-04T00:51:01.023Z,34.28
2018-07-04T00:52:01.014Z,34.39
2018-07-04T00:53:00.998Z,34.50
2018-07-04T00:54:01.023Z,34.67
2018-07-04T00:55:01.015Z,34.38
2018-07-04T00:56:00.971Z,34.58
2018-07-04T00:57:00.959Z,34.50
2018-07-04T00:58:00.950Z,34.48
2018-07-04T00:59:00.940Z,34.67
2018-07-04T01:00:00.959Z,34.48
2018-07-04T01:01:00.989Z,34.59
2018-07-04T01:02:00.910Z,34.79
2018-07-04T01:03:00.898Z,34.50
2018-07-04T01:04:01.209Z,34.50
2018-07-04T01:05:00.879Z,34.50
2018-07-04T01:06:01.205Z,34.69
2018-07-04T01:07:00.892Z,34.10
2018-07-04T01:08:00.973Z,34.79
2018-07-04T01:09:00.844Z,34.67
2018-07-04T01:10:00.846Z,34.50
2018-07-04T01:11:00.821Z,34.50
2018-07-04T01:12:00.808Z,34.69
2018-07-04T01:13:00.836Z,34.10
2018-07-04T01:14:00.785Z,34.10
2018-07-04T01:15:00.815Z,34.79
2018-07-04T01:16:00.769Z,34.30
2018-07-04T01:17:00.754Z,34.50
2018-07-04T01:18:00.748Z,34.10
2018-07-04T01:19:00.776Z,34.39
2018-07-04T01:20:00.730Z,34.10
2018-07-04T01:21:00.717Z,34.10
2018-07-04T01:22:00.743Z,34.10
2018-07-04T01:23:00.691Z,34.30
2018-07-04T01:24:00.685Z,34.20
2018-07-04T01:25:00.716Z,34.10
2018-07-04T01:26:00.665Z,34.10
2018-07-04T01:27:00.654Z,34.30
2018-07-04T01:28:00.646Z,34.30
2018-07-04T01:29:00.690Z,34.00
2018-07-04T01:30:00.706Z,34.10
2018-07-04T01:31:00.647Z,34.30
2018-07-04T01:32:00.607Z,34.10
2018-07-04T01:33:00.595Z,34.10
2018-07-04T01:34:05.386Z,34.10
2018-07-04T01:35:00.576Z,34.30
2018-07-04T01:36:00.609Z,34.30
2018-07-04T01:37:00.590Z,34.20
2018-07-04T01:38:00.541Z,34.10
2018-07-04T01:39:00.532Z,34.10
2018-07-04T01:40:00.526Z,34.10
2018-07-04T01:41:00.513Z,34.30
2018-07-04T01:42:00.502Z,34.00
2018-07-04T01:43:00.680Z,34.00
2018-07-04T01:44:00.480Z,34.10
2018-07-04T01:45:00.475Z,34.00
2018-07-04T01:46:00.463Z,34.30
2018-07-04T01:47:00.451Z,34.00
2018-07-04T01:48:00.441Z,34.00
2018-07-04T01:49:00.511Z,34.00
2018-07-04T01:50:00.460Z,34.30
2018-07-04T01:51:00.794Z,33.70
2018-07-04T01:52:00.408Z,33.90
2018-07-04T01:53:00.803Z,33.90
2018-07-04T01:54:00.380Z,33.90
2018-07-04T01:55:00.767Z,34.20
2018-07-04T01:56:00.360Z,33.90
2018-07-04T01:57:00.425Z,33.70
2018-07-04T01:58:00.341Z,33.90
2018-07-04T01:59:00.328Z,33.90
2018-07-04T02:00:00.322Z,33.90
2018-07-04T02:01:00.345Z,34.00
2018-07-04T02:02:00.297Z,34.20
2018-07-04T02:03:00.287Z,33.90
2018-07-04T02:04:00.329Z,33.90
2018-07-04T02:05:00.265Z,34.20
2018-07-04T02:06:00.262Z,34.30
2018-07-04T02:07:00.287Z,34.20
2018-07-04T02:08:00.236Z,34.30
2018-07-04T02:09:00.231Z,34.39
2018-07-04T02:10:00.217Z,34.39
2018-07-04T02:11:00.258Z,34.20
2018-07-04T02:12:00.198Z,34.79
2018-07-04T02:13:00.220Z,34.20
2018-07-04T02:14:00.179Z,34.10
2018-07-04T02:15:00.168Z,34.10
2018-07-04T02:16:00.155Z,34.39
2018-07-04T02:17:00.144Z,34.30
2018-07-04T02:18:00.194Z,34.20
2018-07-04T02:19:00.158Z,34.30
2018-07-04T02:20:00.112Z,34.30
2018-07-04T02:21:00.104Z,34.39
2018-07-04T02:22:00.099Z,34.39
2018-07-04T02:23:00.084Z,34.10
2018-07-04T02:24:00.077Z,34.30
2018-07-04T02:25:00.128Z,34.39
2018-07-04T02:26:00.053Z,34.69
2018-07-04T02:27:00.041Z,34.30
2018-07-04T02:28:00.039Z,34.39
2018-07-04T02:29:00.026Z,34.20
2018-07-04T02:30:00.018Z,34.79
2018-07-04T02:31:00.114Z,34.39
2018-07-04T02:32:00.033Z,34.79
2018-07-04T02:32:59.979Z,34.89
2018-07-04T02:33:59.969Z,34.79
2018-07-04T02:35:04.757Z,34.39
2018-07-04T02:35:59.950Z,34.69
2018-07-04T02:36:59.974Z,34.89
2018-07-04T02:37:59.926Z,34.69
2018-07-04T02:38:59.966Z,34.69
2018-07-04T02:39:59.914Z,34.79
2018-07-04T02:40:59.903Z,34.89
2018-07-04T02:41:59.889Z,35.09
2018-07-04T02:42:59.908Z,34.69
2018-07-04T02:43:59.862Z,35.09
2018-07-04T02:44:59.932Z,35.09
2018-07-04T02:45:59.883Z,34.89
2018-07-04T02:46:59.836Z,34.99
2018-07-04T02:47:59.823Z,35.09
2018-07-04T02:48:59.851Z,34.59
2018-07-04T02:49:59.809Z,35.09
2018-07-04T02:50:59.795Z,35.11
2018-07-04T02:51:59.784Z,34.69
2018-07-04T02:52:59.811Z,34.61
2018-07-04T02:53:59.764Z,34.69
2018-07-04T02:54:59.788Z,34.81
2018-07-04T02:55:59.742Z,34.69
2018-07-04T02:56:59.730Z,34.69
2018-07-04T02:57:59.722Z,34.69
2018-07-04T02:58:59.712Z,34.59
2018-07-04T02:59:59.738Z,34.69
2018-07-04T03:00:59.729Z,34.89
2018-07-04T03:01:59.678Z,34.61
2018-07-04T03:02:59.674Z,34.59
2018-07-04T03:03:59.663Z,34.79
2018-07-04T03:04:59.653Z,34.79
2018-07-04T03:05:59.642Z,34.79
2018-07-04T03:06:59.706Z,34.79
2018-07-04T03:07:59.624Z,34.69
2018-07-04T03:08:59.610Z,34.59
2018-07-04T03:09:59.601Z,34.71
2018-07-04T03:10:59.590Z,34.89
2018-07-04T03:11:59.579Z,34.61
2018-07-04T03:12:59.603Z,34.31
2018-07-04T03:13:59.593Z,34.50
2018-07-04T03:14:59.551Z,34.69
2018-07-04T03:15:59.539Z,34.50
2018-07-04T03:16:59.527Z,34.50
2018-07-04T03:17:59.556Z,34.69
2018-07-04T03:18:59.508Z,34.59
2018-07-04T03:19:59.498Z,34.50
2018-07-04T03:20:59.517Z,34.51
2018-07-04T03:21:59.478Z,34.50
2018-07-04T03:22:59.468Z,34.51
2018-07-04T03:23:59.493Z,34.41
2018-07-04T03:24:59.450Z,34.50
2018-07-04T03:25:59.443Z,34.31
2018-07-04T03:26:59.427Z,34.89
2018-07-04T03:27:59.459Z,34.41
2018-07-04T03:28:59.407Z,34.59
2018-07-04T03:29:59.432Z,34.31
2018-07-04T03:30:59.390Z,34.50
2018-07-04T03:31:59.490Z,34.61
2018-07-04T03:32:59.413Z,34.61
2018-07-04T03:33:59.355Z,34.50
2018-07-04T03:34:59.384Z,34.89
2018-07-04T03:36:04.173Z,34.69
2018-07-04T03:36:59.326Z,34.79
2018-07-04T03:37:59.315Z,34.91
2018-07-04T03:38:59.304Z,34.89
2018-07-04T03:39:59.297Z,34.51
2018-07-04T03:40:59.285Z,34.79
2018-07-04T03:41:59.361Z,34.79
2018-07-04T03:42:59.264Z,34.89
2018-07-04T03:43:59.258Z,34.89
2018-07-04T03:44:59.245Z,34.61
2018-07-04T03:45:59.236Z,34.69
2018-07-04T03:46:59.256Z,34.51
2018-07-04T03:47:59.216Z,34.71
2018-07-04T03:48:59.237Z,34.51
2018-07-04T03:49:59.192Z,34.81
2018-07-04T03:50:59.184Z,34.79
2018-07-04T03:51:59.173Z,34.59
2018-07-04T03:52:59.198Z,34.79
2018-07-04T03:53:59.153Z,34.69
2018-07-04T03:54:59.138Z,34.59
2018-07-04T03:55:59.165Z,34.50
2018-07-04T03:56:59.120Z,34.89
2018-07-04T03:57:59.132Z,34.89
2018-07-04T03:58:59.133Z,34.89
2018-07-04T03:59:59.416Z,34.69
2018-07-04T04:00:59.077Z,34.89
2018-07-04T04:01:59.106Z,34.89
2018-07-04T04:02:59.095Z,34.79
2018-07-04T04:03:59.045Z,34.89
2018-07-04T04:04:59.069Z,34.91
2018-07-04T04:05:59.029Z,34.69
2018-07-04T04:06:59.012Z,34.61
2018-07-04T04:07:59.007Z,34.50
2018-07-04T04:08:58.995Z,34.39
2018-07-04T04:09:59.025Z,34.50
2018-07-04T04:10:59.013Z,34.69
2018-07-04T04:11:58.964Z,34.59
2018-07-04T04:12:58.950Z,34.69
2018-07-04T04:13:58.943Z,34.50
2018-07-04T04:14:58.934Z,34.50
2018-07-04T04:15:58.925Z,34.30
2018-07-04T04:16:58.998Z,34.50
2018-07-04T04:17:58.903Z,34.69
2018-07-04T04:18:58.894Z,34.50
2018-07-04T04:19:58.885Z,34.30
2018-07-04T04:20:58.874Z,34.50
2018-07-04T04:21:58.860Z,34.69
2018-07-04T04:22:58.887Z,34.89
2018-07-04T04:23:58.882Z,34.89
2018-07-04T04:24:58.829Z,34.89
2018-07-04T04:25:58.820Z,34.79
2018-07-04T04:26:58.811Z,34.79
2018-07-04T04:27:58.799Z,34.79
2018-07-04T04:28:58.824Z,34.59
2018-07-04T04:29:58.781Z,34.69
2018-07-04T04:30:58.810Z,34.69
2018-07-04T04:31:58.757Z,34.78
2018-07-04T04:32:58.867Z,34.59
2018-07-04T04:33:58.819Z,34.79
2018-07-04T04:34:58.732Z,34.79
2018-07-04T04:35:58.719Z,34.59
2018-07-04T04:37:03.510Z,34.50
2018-07-04T04:37:58.732Z,34.50
2018-07-04T04:38:58.691Z,35.07
2018-07-04T04:39:58.712Z,34.59
2018-07-04T04:40:58.671Z,34.79
2018-07-04T04:41:58.659Z,34.59
2018-07-04T04:42:58.979Z,34.59
2018-07-04T04:43:58.639Z,34.59
2018-07-04T04:44:58.696Z,34.59
2018-07-04T04:45:58.652Z,34.79
2018-07-04T04:46:58.603Z,34.79
2018-07-04T04:47:58.594Z,34.99
2018-07-04T04:48:58.583Z,34.79
2018-07-04T04:49:58.575Z,34.50
2018-07-04T04:50:58.566Z,34.97
2018-07-04T04:51:58.624Z,34.67
2018-07-04T04:52:58.543Z,34.88
2018-07-04T04:53:58.537Z,34.78
2018-07-04T04:54:58.521Z,34.88
2018-07-04T04:55:58.511Z,34.67
2018-07-04T04:56:58.541Z,34.78
2018-07-04T04:57:58.493Z,34.48
2018-07-04T04:58:58.519Z,34.18
2018-07-04T04:59:58.473Z,34.48
2018-07-04T05:00:58.458Z,34.28
2018-07-04T05:01:58.449Z,34.18
2018-07-04T05:02:58.474Z,33.89
2018-07-04T05:03:58.432Z,33.98
2018-07-04T05:04:58.418Z,33.79
2018-07-04T05:05:58.455Z,33.89
2018-07-04T05:06:58.398Z,33.89
2018-07-04T05:07:58.502Z,34.28
2018-07-04T05:08:58.411Z,34.27
2018-07-04T05:09:58.364Z,34.27
2018-07-04T05:10:58.354Z,34.17
2018-07-04T05:11:58.343Z,33.89
2018-07-04T05:12:58.373Z,34.06
2018-07-04T05:13:58.319Z,34.08
2018-07-04T05:14:58.344Z,34.76
2018-07-04T05:15:58.299Z,34.56
2018-07-04T05:16:58.292Z,34.36
2018-07-04T05:17:58.280Z,34.36
2018-07-04T05:18:58.262Z,34.36
2018-07-04T05:19:58.294Z,34.36
2018-07-04T05:20:58.284Z,34.36
2018-07-04T05:21:58.232Z,34.36
2018-07-04T05:22:58.221Z,33.97
2018-07-04T05:23:58.210Z,34.44
2018-07-04T05:24:58.195Z,34.44
2018-07-04T05:25:58.190Z,34.34
2018-07-04T05:26:58.251Z,33.97
2018-07-04T05:27:58.167Z,34.05
2018-07-04T05:28:58.150Z,33.95
2018-07-04T05:29:58.143Z,33.56
2018-07-04T05:30:58.132Z,33.95
2018-07-04T05:31:58.123Z,33.65
2018-07-04T05:32:58.156Z,33.75
2018-07-04T05:33:58.135Z,34.05
2018-07-04T05:34:58.197Z,34.34
2018-07-04T05:35:58.075Z,34.05
2018-07-04T05:36:58.065Z,33.46
2018-07-04T05:37:58.058Z,33.36
2018-07-04T05:39:02.876Z,33.65
2018-07-04T05:39:58.032Z,33.74
2018-07-04T05:40:58.132Z,32.95
2018-07-04T05:41:58.008Z,33.25
2018-07-04T05:42:58.000Z,33.04
2018-07-04T05:43:57.994Z,32.65
2018-07-04T05:44:58.017Z,32.65
2018-07-04T05:45:57.968Z,32.85
2018-07-04T05:46:57.957Z,32.85
2018-07-04T05:47:57.979Z,33.04
2018-07-04T05:48:57.933Z,32.85
2018-07-04T05:49:57.926Z,32.95
2018-07-04T05:50:57.955Z,32.85
2018-07-04T05:51:57.905Z,32.95
2018-07-04T05:52:57.896Z,33.04
2018-07-04T05:53:57.879Z,33.44
2018-07-04T05:54:57.904Z,33.04
2018-07-04T05:55:57.859Z,33.23
2018-07-04T05:56:57.882Z,32.95
2018-07-04T05:57:57.840Z,33.13
2018-07-04T05:58:57.828Z,33.15
2018-07-04T05:59:57.818Z,33.03
2018-07-04T06:00:57.811Z,33.04
2018-07-04T06:01:57.843Z,33.25
2018-07-04T06:02:57.823Z,33.03
2018-07-04T06:03:57.776Z,32.85
2018-07-04T06:04:57.773Z,32.85
2018-07-04T06:05:57.760Z,32.93
2018-07-04T06:06:57.746Z,32.85
2018-07-04T06:07:57.737Z,33.04
2018-07-04T06:08:57.804Z,32.73
2018-07-04T06:09:57.712Z,32.64
2018-07-04T06:10:57.706Z,33.62
2018-07-04T06:11:57.694Z,33.03
2018-07-04T06:12:57.681Z,33.42
2018-07-04T06:13:57.672Z,33.03
2018-07-04T06:14:57.740Z,33.13
2018-07-04T06:15:57.687Z,33.03
2018-07-04T06:16:57.714Z,32.93
2018-07-04T06:17:57.631Z,33.33
2018-07-04T06:18:57.620Z,33.23
2018-07-04T06:19:57.613Z,33.42
2018-07-04T06:20:57.636Z,33.33
2018-07-04T06:21:57.588Z,33.23
2018-07-04T06:22:57.616Z,33.23
2018-07-04T06:23:57.569Z,33.03
2018-07-04T06:24:57.555Z,33.11
2018-07-04T06:25:57.585Z,33.23
2018-07-04T06:26:57.537Z,32.84
2018-07-04T06:27:57.530Z,32.72
2018-07-04T06:28:57.517Z,33.23
2018-07-04T06:29:57.553Z,32.73
2018-07-04T06:30:57.497Z,33.03
2018-07-04T06:31:57.519Z,32.73
2018-07-04T06:32:57.473Z,32.82
2018-07-04T06:33:57.467Z,32.82
2018-07-04T06:34:57.454Z,32.92
2018-07-04T06:35:57.444Z,32.44
2018-07-04T06:36:57.553Z,32.84
2018-07-04T06:37:57.464Z,32.52
2018-07-04T06:38:57.413Z,32.42
2018-07-04T06:39:57.401Z,32.23
2018-07-04T06:41:02.194Z,32.72
2018-07-04T06:41:57.382Z,32.42
2018-07-04T06:42:57.367Z,32.62
2018-07-04T06:43:57.430Z,32.32
2018-07-04T06:44:57.350Z,32.23
2018-07-04T06:45:57.337Z,32.23
2018-07-04T06:46:57.327Z,32.31
2018-07-04T06:47:57.326Z,32.32
2018-07-04T06:48:57.359Z,32.42
2018-07-04T06:49:57.330Z,32.42
2018-07-04T06:50:57.331Z,32.72
2018-07-04T06:51:57.277Z,32.82
2018-07-04T06:52:57.261Z,32.11
2018-07-04T06:53:57.254Z,32.13
2018-07-04T06:54:57.243Z,32.72
2018-07-04T06:55:57.272Z,32.82
2018-07-04T06:56:57.221Z,32.82
2018-07-04T06:57:57.257Z,32.80
2018-07-04T06:58:57.198Z,32.31
2018-07-04T06:59:57.190Z,32.72
2018-07-04T07:00:57.181Z,32.62
2018-07-04T07:01:57.242Z,32.52
2018-07-04T07:02:57.167Z,33.10
2018-07-04T07:03:57.148Z,32.52
2018-07-04T07:04:57.171Z,33.00
2018-07-04T07:05:57.126Z,32.82
2018-07-04T07:06:57.117Z,32.82
2018-07-04T07:07:57.146Z,32.72
2018-07-04T07:08:57.094Z,33.10
2018-07-04T07:09:57.087Z,33.00
2018-07-04T07:10:57.075Z,32.82
2018-07-04T07:11:57.103Z,33.22
2018-07-04T07:12:57.052Z,33.01
2018-07-04T07:13:57.082Z,33.11
2018-07-04T07:14:57.033Z,33.11
2018-07-04T07:15:57.023Z,33.61
2018-07-04T07:16:57.017Z,33.11
2018-07-04T07:17:56.999Z,33.39
2018-07-04T07:18:57.033Z,33.20
2018-07-04T07:19:57.015Z,33.10
2018-07-04T07:20:56.966Z,33.39
2018-07-04T07:21:56.959Z,33.22
2018-07-04T07:22:56.948Z,32.92
2018-07-04T07:23:56.946Z,33.22
2018-07-04T07:24:56.928Z,33.20
2018-07-04T07:25:57.084Z,32.90
2018-07-04T07:26:56.909Z,33.20
2018-07-04T07:27:56.892Z,33.20
2018-07-04T07:28:56.943Z,33.20
2018-07-04T07:29:56.871Z,33.11
2018-07-04T07:30:56.865Z,33.20
2018-07-04T07:31:56.922Z,33.29
2018-07-04T07:32:56.954Z,33.00
2018-07-04T07:33:56.904Z,32.90
2018-07-04T07:34:56.849Z,33.39
2018-07-04T07:35:56.812Z,32.90
2018-07-04T07:36:56.799Z,33.20
2018-07-04T07:37:56.871Z,33.29
2018-07-04T07:38:56.780Z,33.20
2018-07-04T07:39:56.800Z,33.29
2018-07-04T07:40:56.759Z,33.29
2018-07-04T07:41:56.757Z,33.39
2018-07-04T07:43:01.553Z,33.39
2018-07-04T07:43:56.761Z,33.49
2018-07-04T07:44:56.715Z,33.00
2018-07-04T07:45:56.703Z,33.69
2018-07-04T07:46:56.734Z,33.10
2018-07-04T07:47:56.683Z,33.39
2018-07-04T07:48:56.707Z,33.18
2018-07-04T07:49:56.661Z,33.20
2018-07-04T07:50:56.651Z,32.80
2018-07-04T07:51:56.640Z,32.98
2018-07-04T07:52:56.628Z,32.49
2018-07-04T07:53:56.652Z,32.69
2018-07-04T07:54:56.643Z,32.79
2018-07-04T07:55:56.600Z,32.29
2018-07-04T07:56:56.587Z,32.59
2018-07-04T07:57:56.579Z,32.79
2018-07-04T07:58:56.569Z,32.39
2018-07-04T07:59:56.553Z,32.79
2018-07-04T08:00:56.634Z,32.57
2018-07-04T08:01:56.633Z,32.48
2018-07-04T08:02:56.521Z,32.48
2018-07-04T08:03:56.514Z,32.38
2018-07-04T08:04:56.501Z,32.39
2018-07-04T08:05:56.535Z,32.67
2018-07-04T08:06:56.516Z,32.77
2018-07-04T08:07:56.513Z,32.67
2018-07-04T08:08:56.458Z,32.38
2018-07-04T08:09:56.447Z,32.57
2018-07-04T08:10:56.434Z,32.48
2018-07-04T08:11:56.489Z,32.38
2018-07-04T08:12:56.530Z,32.38
2018-07-04T08:13:56.740Z,32.38
2018-07-04T08:14:56.441Z,32.38
2018-07-04T08:15:56.704Z,32.48
2018-07-04T08:16:56.373Z,32.38
2018-07-04T08:17:56.364Z,32.38
2018-07-04T08:18:56.385Z,32.57
2018-07-04T08:19:56.339Z,32.38
2018-07-04T08:20:56.332Z,32.28
2018-07-04T08:21:56.353Z,32.48
2018-07-04T08:22:56.310Z,32.28
2018-07-04T08:23:56.302Z,32.28
2018-07-04T08:24:56.326Z,32.28
2018-07-04T08:25:56.279Z,32.18
2018-07-04T08:26:56.263Z,32.18
2018-07-04T08:27:56.256Z,31.98
2018-07-04T08:28:56.300Z,31.88
2018-07-04T08:29:56.234Z,32.07
2018-07-04T08:30:56.260Z,31.87
2018-07-04T08:31:56.273Z,32.26
2018-07-04T08:32:56.201Z,32.36
2018-07-04T08:33:56.196Z,32.26
2018-07-04T08:34:56.180Z,32.56
2018-07-04T08:35:56.237Z,32.36
2018-07-04T08:36:56.172Z,32.45
2018-07-04T08:37:56.163Z,32.26
2018-07-04T08:38:56.204Z,31.95
2018-07-04T08:39:56.132Z,32.34
2018-07-04T08:40:56.123Z,32.64
2018-07-04T08:41:56.154Z,32.24
2018-07-04T08:42:56.145Z,31.76
2018-07-04T08:43:56.091Z,31.76
2018-07-04T08:45:00.905Z,31.76
2018-07-04T08:45:56.072Z,31.85
2018-07-04T08:46:56.058Z,31.95
2018-07-04T08:47:56.081Z,31.95
2018-07-04T08:48:56.044Z,31.85
2018-07-04T08:49:56.067Z,32.05
2018-07-04T08:50:56.019Z,31.94
2018-07-04T08:51:56.011Z,31.94
2018-07-04T08:52:56.012Z,32.14
2018-07-04T08:53:56.023Z,31.64
2018-07-04T08:54:55.975Z,32.14
2018-07-04T08:55:55.968Z,31.64
2018-07-04T08:56:55.995Z,32.23
2018-07-04T08:57:55.944Z,31.74
2018-07-04T08:58:55.937Z,31.54
2018-07-04T08:59:55.957Z,32.04
2018-07-04T09:00:55.911Z,31.64
2018-07-04T09:01:55.900Z,31.13
2018-07-04T09:02:55.891Z,31.15
2018-07-04T09:03:55.913Z,31.15
2018-07-04T09:04:55.869Z,31.45
2018-07-04T09:05:55.894Z,31.84
2018-07-04T09:06:55.845Z,31.84
2018-07-04T09:07:55.835Z,30.95
2018-07-04T09:08:55.828Z,30.95
2018-07-04T09:09:55.820Z,31.84
2018-07-04T09:10:55.850Z,31.94
2018-07-04T09:11:55.941Z,31.74
2018-07-04T09:12:55.782Z,32.04
2018-07-04T09:13:55.773Z,32.14
2018-07-04T09:14:55.765Z,32.14
2018-07-04T09:15:55.752Z,31.84
2018-07-04T09:16:55.737Z,32.62
2018-07-04T09:17:55.794Z,31.94
2018-07-04T09:18:55.716Z,31.94
2018-07-04T09:19:55.712Z,31.84
2018-07-04T09:20:55.697Z,31.74
2018-07-04T09:21:55.684Z,31.76
2018-07-04T09:22:55.679Z,31.76
2018-07-04T09:23:55.699Z,31.94
2018-07-04T09:24:55.690Z,32.54
2018-07-04T09:25:55.643Z,31.95
2018-07-04T09:26:55.638Z,32.34
2018-07-04T09:27:55.627Z,32.93
2018-07-04T09:28:55.617Z,32.54
2018-07-04T09:29:55.640Z,32.54
2018-07-04T09:30:55.596Z,32.24
2018-07-04T09:31:55.620Z,32.34
2018-07-04T09:32:55.575Z,32.46
2018-07-04T09:33:55.567Z,32.15
2018-07-04T09:34:55.552Z,32.24
2018-07-04T09:35:55.580Z,32.24
2018-07-04T09:36:55.536Z,32.24
2018-07-04T09:37:55.523Z,32.24
2018-07-04T09:38:55.556Z,32.34
2018-07-04T09:39:55.595Z,32.84
2018-07-04T09:40:55.497Z,32.34
2018-07-04T09:41:55.520Z,32.45
2018-07-04T09:42:55.475Z,32.93
2018-07-04T09:43:55.513Z,32.45
2018-07-04T09:44:55.457Z,32.23
2018-07-04T09:46:00.309Z,32.34
2018-07-04T09:46:55.438Z,32.23
2018-07-04T09:47:55.456Z,31.94
2018-07-04T09:48:55.414Z,31.74
2018-07-04T09:49:55.399Z,31.74
2018-07-04T09:50:55.392Z,31.84
2018-07-04T09:51:55.382Z,31.92
2018-07-04T09:52:55.402Z,32.04
2018-07-04T09:53:55.394Z,32.12
2018-07-04T09:54:55.348Z,31.82
2018-07-04T09:55:55.336Z,32.21
2018-07-04T09:56:55.325Z,32.31
2018-07-04T09:57:55.314Z,31.63
2018-07-04T09:58:55.411Z,32.12
2018-07-04T09:59:55.337Z,31.43
2018-07-04T10:00:55.280Z,31.73
2018-07-04T10:01:55.273Z,32.12
2018-07-04T10:02:55.264Z,31.82
2018-07-04T10:03:55.250Z,30.93
2018-07-04T10:04:55.273Z,31.13
2018-07-04T10:05:55.233Z,32.02
2018-07-04T10:06:55.249Z,31.81
2018-07-04T10:07:55.211Z,31.63
2018-07-04T10:08:55.203Z,31.12
2018-07-04T10:09:55.186Z,31.73
2018-07-04T10:10:55.215Z,31.53
2018-07-04T10:11:55.174Z,31.63
2018-07-04T10:12:55.164Z,31.61
2018-07-04T10:13:55.194Z,31.41
2018-07-04T10:14:55.140Z,31.13
2018-07-04T10:15:55.126Z,31.53
2018-07-04T10:16:55.485Z,31.61
2018-07-04T10:17:55.107Z,31.12
2018-07-04T10:18:55.113Z,31.02
2018-07-04T10:19:55.083Z,31.13
2018-07-04T10:20:55.107Z,31.13
2018-07-04T10:21:55.067Z,30.93
2018-07-04T10:22:55.105Z,32.01
2018-07-04T10:23:55.039Z,32.02
2018-07-04T10:24:55.030Z,31.13
2018-07-04T10:25:55.042Z,31.81
2018-07-04T10:26:55.012Z,31.51
2018-07-04T10:27:55.049Z,31.63
2018-07-04T10:28:55.026Z,31.63
2018-07-04T10:29:54.979Z,31.63
2018-07-04T10:30:54.971Z,31.82
2018-07-04T10:31:54.960Z,32.01
2018-07-04T10:32:54.949Z,31.12
2018-07-04T10:33:54.940Z,31.41
2018-07-04T10:34:55.007Z,31.04
2018-07-04T10:35:54.922Z,31.12
2018-07-04T10:36:54.910Z,32.10
2018-07-04T10:37:54.900Z,31.41
2018-07-04T10:38:54.890Z,31.12
2018-07-04T10:39:54.881Z,31.12
2018-07-04T10:40:54.932Z,31.81
2018-07-04T10:41:54.895Z,31.51
2018-07-04T10:42:54.848Z,31.81
2018-07-04T10:43:54.834Z,31.61
2018-07-04T10:44:54.928Z,31.71
2018-07-04T10:45:54.823Z,32.10
2018-07-04T10:46:59.642Z,32.12
2018-07-04T10:47:54.796Z,32.10
2018-07-04T10:48:54.836Z,32.10
2018-07-04T10:49:54.800Z,32.10
2018-07-04T10:50:54.815Z,32.20
2018-07-04T10:51:54.833Z,31.81
2018-07-04T10:52:54.880Z,31.90
2018-07-04T10:53:54.774Z,32.40
2018-07-04T10:54:54.723Z,32.01
2018-07-04T10:55:54.782Z,32.01
2018-07-04T10:56:54.704Z,31.81
2018-07-04T10:57:54.694Z,31.90
2018-07-04T10:58:54.711Z,31.92
2018-07-04T10:59:54.670Z,31.90
2018-07-04T11:00:54.663Z,31.92
2018-07-04T11:01:54.653Z,31.81
2018-07-04T11:02:54.674Z,31.81
2018-07-04T11:03:54.629Z,31.90
2018-07-04T11:04:54.657Z,31.90
2018-07-04T11:05:54.614Z,31.81
2018-07-04T11:06:54.599Z,31.82
2018-07-04T11:07:54.641Z,32.10
2018-07-04T11:08:54.579Z,31.71
2018-07-04T11:09:54.600Z,32.10
2018-07-04T11:10:54.584Z,31.90
2018-07-04T11:11:54.550Z,32.01
2018-07-04T11:12:54.539Z,32.01
2018-07-04T11:13:54.529Z,32.01
2018-07-04T11:14:54.518Z,32.01
2018-07-04T11:15:54.505Z,31.71
2018-07-04T11:16:54.636Z,31.81
2018-07-04T11:17:54.486Z,31.51
2018-07-04T11:18:54.477Z,32.30
2018-07-04T11:19:54.466Z,32.20
2018-07-04T11:20:54.454Z,31.61
2018-07-04T11:21:54.466Z,31.61
2018-07-04T11:22:54.433Z,31.81
2018-07-04T11:23:54.462Z,31.61
2018-07-04T11:24:54.416Z,32.01
2018-07-04T11:25:54.405Z,31.81
2018-07-04T11:26:54.392Z,31.90
2018-07-04T11:27:54.419Z,32.01
2018-07-04T11:28:54.376Z,31.81
2018-07-04T11:29:54.366Z,31.81
2018-07-04T11:30:54.413Z,31.71
2018-07-04T11:31:54.352Z,31.71
2018-07-04T11:32:54.330Z,31.71
2018-07-04T11:33:54.344Z,31.71
2018-07-04T11:34:54.317Z,31.71
2018-07-04T11:35:54.301Z,31.81
2018-07-04T11:36:54.290Z,32.40
2018-07-04T11:37:54.324Z,32.59
2018-07-04T11:38:54.272Z,32.30
2018-07-04T11:39:54.279Z,32.20
2018-07-04T11:40:54.254Z,32.50
2018-07-04T11:41:54.334Z,32.59
2018-07-04T11:42:54.230Z,32.30
2018-07-04T11:43:54.220Z,31.90
2018-07-04T11:44:54.243Z,31.90
2018-07-04T11:45:54.237Z,32.79
2018-07-04T11:46:54.191Z,32.40
2018-07-04T11:47:58.998Z,32.89
2018-07-04T11:48:54.193Z,32.30
2018-07-04T11:49:54.156Z,32.30
2018-07-04T11:50:54.152Z,32.50
2018-07-04T11:51:54.189Z,32.50
2018-07-04T11:52:54.130Z,32.69
2018-07-04T11:53:54.116Z,32.69
2018-07-04T11:54:54.109Z,32.71
2018-07-04T11:55:54.101Z,32.12
2018-07-04T11:56:54.087Z,31.82
2018-07-04T11:57:54.099Z,32.02
2018-07-04T11:58:54.097Z,32.12
2018-07-04T11:59:54.056Z,32.21
2018-07-04T12:00:54.043Z,32.51
2018-07-04T12:01:54.034Z,32.71
2018-07-04T12:02:54.024Z,32.51
2018-07-04T12:03:54.049Z,32.51
2018-07-04T12:04:54.002Z,32.51
2018-07-04T12:05:54.031Z,32.72
2018-07-04T12:06:53.987Z,32.41
2018-07-04T12:07:53.976Z,33.00
2018-07-04T12:08:53.961Z,33.02
2018-07-04T12:09:53.973Z,33.22
2018-07-04T12:10:53.971Z,33.22
2018-07-04T12:11:53.927Z,33.31
2018-07-04T12:12:53.947Z,32.53
2018-07-04T12:13:53.905Z,32.92
2018-07-04T12:14:53.898Z,32.53
2018-07-04T12:15:53.917Z,32.92
2018-07-04T12:16:53.876Z,33.41
2018-07-04T12:17:53.861Z,34.22
2018-07-04T12:18:53.855Z,34.22
2018-07-04T12:19:53.870Z,33.62
2018-07-04T12:20:53.862Z,33.92
2018-07-04T12:21:53.840Z,33.53
2018-07-04T12:22:53.809Z,33.82
2018-07-04T12:23:53.800Z,33.82
2018-07-04T12:24:53.787Z,33.82
2018-07-04T12:25:53.774Z,33.92
2018-07-04T12:26:53.847Z,34.03
2018-07-04T12:27:53.791Z,34.22
2018-07-04T12:28:53.744Z,34.51
2018-07-04T12:29:53.731Z,34.11
2018-07-04T12:30:53.720Z,34.01
2018-07-04T12:31:53.757Z,33.94
2018-07-04T12:32:53.705Z,34.53
2018-07-04T12:33:53.749Z,33.94
2018-07-04T12:34:53.681Z,34.63
2018-07-04T12:35:53.671Z,34.43
2018-07-04T12:36:53.661Z,34.53
2018-07-04T12:37:53.649Z,34.43
2018-07-04T12:38:53.641Z,34.33
2018-07-04T12:39:53.655Z,34.72
2018-07-04T12:40:53.665Z,34.63
2018-07-04T12:41:53.931Z,35.02
2018-07-04T12:42:53.686Z,34.34
2018-07-04T12:43:53.587Z,34.82
2018-07-04T12:44:53.581Z,34.74
2018-07-04T12:45:53.603Z,35.03
2018-07-04T12:46:53.683Z,35.13
2018-07-04T12:47:53.585Z,34.34
2018-07-04T12:48:58.365Z,34.54
2018-07-04T12:49:53.525Z,34.54
2018-07-04T12:50:53.538Z,35.13
2018-07-04T12:51:53.517Z,34.84